Mount Pleasant, TX

4:57 AM CDT on May 24, 2017 (GMT -0500)
Union Hill Road at CR 4640 | | Change Station
Active Advisory: Lake Wind Advisory

Elev 425 ft 33.09 °N, 94.90 °W | Updated 10 seconds ago

Clear
Clear
55.7 °F
Feels Like 55.7 °F
N
2.0
Wind Variable Wind from WNW
Gusts 4.0 mph

Today
High -- | Low -- °F
--% Chance of Precip.
Yesterday
High -- | Low -- °F
Precip. -- in
Pressure 29.79 in
Visibility 10.0 miles
Clouds Clear
Dew Point 53 °F
Humidity 91%
Rainfall 0.00 in
Snow Depth Not available.
6:14 AM 8:19 PM
Waning Crescent, 3% visible
METAR KOSA 240935Z AUTO 30007KT 10SM CLR 14/11 A2979 RMK AO1 T01360110
Pressure 29.79 in
Visibility 10.0 miles
Clouds Clear
Dew Point 53 °F
Humidity 91%
Rainfall 0.00 in
Snow Depth Not available.
6:14 AM 8:19 PM
Waning Crescent, 3% visible
METAR KOSA 240935Z AUTO 30007KT 10SM CLR 14/11 A2979 RMK AO1 T01360110

Get Your Daily Forecast Email!

Thanks for signing up!

Be on the lookout for a verification email in your inbox.

You'll start receiving severe weather alerts in your inbox..

×

10-Day Weather Forecast

Almanac

Astronomy

May. 24, 2017 Rise Set
Actual Time
Civil Twilight
Nautical Twilight
Astronomical Twilight
Moon
Length of Visible Light
Length of Day
Tomorrow will be .
, % of the Moon is Illuminated

Today's Extremes

State Highs State Lows

Community

WunderPhotos

Category 6

Welcome to Category 6. This is the collective home for Weather Underground's featured writeups by Dr. Jeff Masters (right), Bob Henson (left), Chris Burt, and other regular contributors.

Nearby

Air Quality

  Air Quality AQ Index Pollutant
Not available.

Snow Depth

Station Depth Elevation

Earthquake Activity

City Distance Mag. Time & Date
Minimum magnitude displayed is 2.5.

Coastal Water Temperatures

Place Temperature

Stations

Nearby Weather Stations

Station Location Temp. Windchill Dew Point Humidity Wind Precip. Elev Updated Type
                   

Watches & Warnings

Lake Wind Advisory
Issued: 2:07 AM CDT May. 24, 2017 – National Weather Service

... Lake Wind Advisory in effect from 10 am this morning to 7 PM
CDT this evening...

The National Weather Service in Shreveport has issued a lake Wind
Advisory, which is in effect from 10 am this morning to 7 PM CDT
this evening.

* Event... a tight pressure gradient will be in place today in the
wake of a strong cold front which pushed through the region on
Tuesday. Northwest winds will increase to near 15 to 20 mph with
gusts as high as 30 to 35 mph at times today.

* Timing... areawide from 10 am this morning through 7 PM this
evening.

* Impact... boaters should exercise caution on area lakes and
waterways due to rough chop conditions which can capsize small
craft. East and west bound high profile vehicles will be
affected by the winds and should be alert for sudden high wind
gusts.

Precautionary/preparedness actions...

A lake Wind Advisory indicates that winds will cause rough chop
on area lakes. Small boats will be especially prone to capsizing.



13